sensor_id;sensor_type;location;lat;lon;timestamp;pressure;altitude;pressure_sealevel;temperature;humidity
38558;BME280;24333;42.626;23.308;2024-03-02T00:00:35;69977.13;;;-148.95;100.00
38558;BME280;24333;42.626;23.308;2024-03-02T00:03:02;69977.13;;;-148.95;100.00
38558;BME280;24333;42.626;23.308;2024-03-02T00:20:59;69995.78;;;-148.95;100.00
38558;BME280;24333;42.626;23.308;2024-03-02T00:23:35;70002.00;;;-148.95;100.00
38558;BME280;24333;42.626;23.308;2024-03-02T00:26:01;70010.31;;;-148.95;100.00
38558;BME280;24333;42.626;23.308;2024-03-02T00:28:34;70026.91;;;-148.95;100.00
38558;BME280;24333;42.626;23.308;2024-03-02T00:31:10;70028.97;;;-148.95;100.00
38558;BME280;24333;42.626;23.308;2024-03-02T00:33:49;70026.91;;;-148.95;100.00
38558;BME280;24333;42.626;23.308;2024-03-02T02:48:12;69995.78;;;-148.95;100.00
38558;BME280;24333;42.626;23.308;2024-03-02T02:50:38;69987.50;;;-148.95;100.00
38558;BME280;24333;42.626;23.308;2024-03-02T02:53:03;69993.72;;;-148.95;100.00
38558;BME280;24333;42.626;23.308;2024-03-02T02:55:28;69989.56;;;-148.95;100.00
38558;BME280;24333;42.626;23.308;2024-03-02T02:57:54;69981.25;;;-148.95;100.00
38558;BME280;24333;42.626;23.308;2024-03-02T03:00:19;69985.41;;;-148.95;100.00
38558;BME280;24333;42.626;23.308;2024-03-02T03:02:47;69977.13;;;-148.95;100.00
38558;BME280;24333;42.626;23.308;2024-03-02T03:05:15;69979.19;;;-148.95;100.00
38558;BME280;24333;42.626;23.308;2024-03-02T03:07:42;69972.97;;;-148.95;100.00
38558;BME280;24333;42.626;23.308;2024-03-02T03:10:08;69987.50;;;-148.95;100.00
38558;BME280;24333;42.626;23.308;2024-03-02T03:12:36;69989.56;;;-148.95;100.00
38558;BME280;24333;42.626;23.308;2024-03-02T03:15:03;69981.25;;;-148.95;100.00
38558;BME280;24333;42.626;23.308;2024-03-02T03:17:29;69972.97;;;-148.95;100.00
38558;BME280;24333;42.626;23.308;2024-03-02T03:19:55;69964.66;;;-148.95;100.00
38558;BME280;24333;42.626;23.308;2024-03-02T03:24:55;69985.41;;;-148.95;100.00
38558;BME280;24333;42.626;23.308;2024-03-02T03:27:21;69989.56;;;-148.95;100.00
38558;BME280;24333;42.626;23.308;2024-03-02T03:29:47;70002.00;;;-148.95;100.00
38558;BME280;24333;42.626;23.308;2024-03-02T03:32:13;70010.31;;;-148.95;100.00
38558;BME280;24333;42.626;23.308;2024-03-02T03:34:39;70006.16;;;-148.95;100.00
38558;BME280;24333;42.626;23.308;2024-03-02T03:37:05;69997.88;;;-148.95;100.00
38558;BME280;24333;42.626;23.308;2024-03-02T03:39:30;70002.00;;;-148.95;100.00
38558;BME280;24333;42.626;23.308;2024-03-02T03:41:56;70016.53;;;-148.95;100.00
38558;BME280;24333;42.626;23.308;2024-03-02T03:44:21;70016.53;;;-148.95;100.00
38558;BME280;24333;42.626;23.308;2024-03-02T03:46:47;70028.97;;;-148.95;100.00
38558;BME280;24333;42.626;23.308;2024-03-02T03:49:12;70024.84;;;-148.95;100.00
38558;BME280;24333;42.626;23.308;2024-03-02T03:51:37;70022.75;;;-148.95;100.00
38558;BME280;24333;42.626;23.308;2024-03-02T03:54:03;70016.53;;;-148.95;100.00
38558;BME280;24333;42.626;23.308;2024-03-02T03:56:28;70008.22;;;-148.95;100.00
38558;BME280;24333;42.626;23.308;2024-03-02T03:58:54;70004.09;;;-148.95;100.00
38558;BME280;24333;42.626;23.308;2024-03-02T04:01:19;69993.72;;;-148.95;100.00
38558;BME280;24333;42.626;23.308;2024-03-02T04:03:44;69997.88;;;-148.95;100.00
38558;BME280;24333;42.626;23.308;2024-03-02T04:06:10;69991.63;;;-148.95;100.00
38558;BME280;24333;42.626;23.308;2024-03-02T04:08:35;70008.22;;;-148.95;100.00
38558;BME280;24333;42.626;23.308;2024-03-02T04:11:01;70018.59;;;-148.95;100.00
38558;BME280;24333;42.626;23.308;2024-03-02T04:13:28;70006.16;;;-148.95;100.00
38558;BME280;24333;42.626;23.308;2024-03-02T04:15:53;70002.00;;;-148.95;100.00
38558;BME280;24333;42.626;23.308;2024-03-02T04:18:19;69985.41;;;-148.95;100.00
38558;BME280;24333;42.626;23.308;2024-03-02T04:20:44;69977.13;;;-148.95;100.00
38558;BME280;24333;42.626;23.308;2024-03-02T04:23:09;69968.81;;;-148.95;100.00
38558;BME280;24333;42.626;23.308;2024-03-02T04:25:35;69968.81;;;-148.95;100.00
38558;BME280;24333;42.626;23.308;2024-03-02T04:28:01;69964.66;;;-148.95;100.00
38558;BME280;24333;42.626;23.308;2024-03-02T04:30:26;69956.38;;;-148.95;100.00
38558;BME280;24333;42.626;23.308;2024-03-02T04:32:52;69956.38;;;-148.95;100.00
38558;BME280;24333;42.626;23.308;2024-03-02T04:35:17;69966.75;;;-148.95;100.00
38558;BME280;24333;42.626;23.308;2024-03-02T04:37:43;69964.66;;;-148.95;100.00
38558;BME280;24333;42.626;23.308;2024-03-02T04:40:09;69964.66;;;-148.95;100.00
38558;BME280;24333;42.626;23.308;2024-03-02T04:42:35;69962.59;;;-148.95;100.00
38558;BME280;24333;42.626;23.308;2024-03-02T04:45:01;69964.66;;;-148.95;100.00
38558;BME280;24333;42.626;23.308;2024-03-02T04:47:26;69962.59;;;-148.95;100.00
38558;BME280;24333;42.626;23.308;2024-03-02T04:49:52;69960.53;;;-148.95;100.00
38558;BME280;24333;42.626;23.308;2024-03-02T05:11:11;69989.56;;;-148.95;100.00
38558;BME280;24333;42.626;23.308;2024-03-02T05:13:55;69979.19;;;-148.95;100.00
38558;BME280;24333;42.626;23.308;2024-03-02T05:16:20;69983.34;;;-148.95;100.00
38558;BME280;24333;42.626;23.308;2024-03-02T05:18:46;69985.41;;;-148.95;100.00
38558;BME280;24333;42.626;23.308;2024-03-02T05:21:11;69989.56;;;-148.95;100.00
38558;BME280;24333;42.626;23.308;2024-03-02T05:23:36;69997.88;;;-148.95;100.00
38558;BME280;24333;42.626;23.308;2024-03-02T05:26:02;69995.78;;;-148.95;100.00
38558;BME280;24333;42.626;23.308;2024-03-02T05:28:28;70014.47;;;-148.95;100.00
38558;BME280;24333;42.626;23.308;2024-03-02T05:30:53;70033.13;;;-148.95;100.00
38558;BME280;24333;42.626;23.308;2024-03-02T05:33:18;70037.28;;;-148.95;100.00
38558;BME280;24333;42.626;23.308;2024-03-02T05:35:47;70041.44;;;-148.95;100.00
38558;BME280;24333;42.626;23.308;2024-03-02T05:38:15;70053.88;;;-148.95;100.00
38558;BME280;24333;42.626;23.308;2024-03-02T06:03:01;70033.13;;;-148.95;100.00
38558;BME280;24333;42.626;23.308;2024-03-02T06:05:27;70031.06;;;-148.95;100.00
38558;BME280;24333;42.626;23.308;2024-03-02T06:07:52;70043.50;;;-148.95;100.00
38558;BME280;24333;42.626;23.308;2024-03-02T06:10:20;70028.97;;;-148.95;100.00
38558;BME280;24333;42.626;23.308;2024-03-02T06:12:46;70047.66;;;-148.95;100.00
38558;BME280;24333;42.626;23.308;2024-03-02T06:15:11;70037.28;;;-148.95;100.00
38558;BME280;24333;42.626;23.308;2024-03-02T06:17:36;70026.91;;;-148.95;100.00
38558;BME280;24333;42.626;23.308;2024-03-02T06:20:05;70014.47;;;-148.95;100.00
38558;BME280;24333;42.626;23.308;2024-03-02T06:22:33;70012.38;;;-148.95;100.00
38558;BME280;24333;42.626;23.308;2024-03-02T06:24:58;70002.00;;;-148.95;100.00
38558;BME280;24333;42.626;23.308;2024-03-02T06:27:24;69993.72;;;-148.95;100.00
38558;BME280;24333;42.626;23.308;2024-03-02T06:29:49;69997.88;;;-148.95;100.00
38558;BME280;24333;42.626;23.308;2024-03-02T06:32:16;69993.72;;;-148.95;100.00
38558;BME280;24333;42.626;23.308;2024-03-02T06:34:42;70002.00;;;-148.95;100.00
38558;BME280;24333;42.626;23.308;2024-03-02T06:37:07;69999.94;;;-148.95;100.00
38558;BME280;24333;42.626;23.308;2024-03-02T06:39:32;69999.94;;;-148.95;100.00
38558;BME280;24333;42.626;23.308;2024-03-02T06:41:59;70012.38;;;-148.95;100.00
38558;BME280;24333;42.626;23.308;2024-03-02T06:44:25;70006.16;;;-148.95;100.00
38558;BME280;24333;42.626;23.308;2024-03-02T06:46:50;70006.16;;;-148.95;100.00
38558;BME280;24333;42.626;23.308;2024-03-02T06:49:16;70002.00;;;-148.95;100.00
38558;BME280;24333;42.626;23.308;2024-03-02T06:51:43;69999.94;;;-148.95;100.00
38558;BME280;24333;42.626;23.308;2024-03-02T06:54:09;69999.94;;;-148.95;100.00
38558;BME280;24333;42.626;23.308;2024-03-02T06:56:34;69993.72;;;-148.95;100.00
38558;BME280;24333;42.626;23.308;2024-03-02T06:58:59;69987.50;;;-148.95;100.00
38558;BME280;24333;42.626;23.308;2024-03-02T07:01:35;69985.41;;;-148.95;100.00
38558;BME280;24333;42.626;23.308;2024-03-02T07:04:06;69985.41;;;-148.95;100.00
38558;BME280;24333;42.626;23.308;2024-03-02T07:06:41;69981.25;;;-148.95;100.00
38558;BME280;24333;42.626;23.308;2024-03-02T07:09:06;69997.88;;;-148.95;100.00
38558;BME280;24333;42.626;23.308;2024-03-02T07:11:36;69991.63;;;-148.95;100.00
38558;BME280;24333;42.626;23.308;2024-03-02T07:14:02;69997.88;;;-148.95;100.00
38558;BME280;24333;42.626;23.308;2024-03-02T07:16:27;69991.63;;;-148.95;100.00
38558;BME280;24333;42.626;23.308;2024-03-02T07:18:58;69991.63;;;-148.95;100.00
38558;BME280;24333;42.626;23.308;2024-03-02T07:21:24;69985.41;;;-148.95;100.00
38558;BME280;24333;42.626;23.308;2024-03-02T07:23:50;69977.13;;;-148.95;100.00
38558;BME280;24333;42.626;23.308;2024-03-02T07:26:15;69970.91;;;-148.95;100.00
38558;BME280;24333;42.626;23.308;2024-03-02T07:28:42;69972.97;;;-148.95;100.00
38558;BME280;24333;42.626;23.308;2024-03-02T07:31:09;69970.91;;;-148.95;100.00
38558;BME280;24333;42.626;23.308;2024-03-02T07:33:35;69979.19;;;-148.95;100.00
38558;BME280;24333;42.626;23.308;2024-03-02T07:36:00;69981.25;;;-148.95;100.00
38558;BME280;24333;42.626;23.308;2024-03-02T07:38:27;69977.13;;;-148.95;100.00
38558;BME280;24333;42.626;23.308;2024-03-02T07:40:54;69966.75;;;-148.95;100.00
38558;BME280;24333;42.626;23.308;2024-03-02T07:43:22;69954.31;;;-148.95;100.00
38558;BME280;24333;42.626;23.308;2024-03-02T07:45:48;69952.22;;;-148.95;100.00
38558;BME280;24333;42.626;23.308;2024-03-02T07:48:14;69956.38;;;-148.95;100.00
38558;BME280;24333;42.626;23.308;2024-03-02T07:50:40;69952.22;;;-148.95;100.00
38558;BME280;24333;42.626;23.308;2024-03-02T07:53:05;69956.38;;;-148.95;100.00
38558;BME280;24333;42.626;23.308;2024-03-02T07:55:31;69966.75;;;-148.95;100.00
38558;BME280;24333;42.626;23.308;2024-03-02T07:57:57;69958.44;;;-148.95;100.00
38558;BME280;24333;42.626;23.308;2024-03-02T08:00:23;69972.97;;;-148.95;100.00
38558;BME280;24333;42.626;23.308;2024-03-02T08:02:50;69972.97;;;-148.95;100.00
38558;BME280;24333;42.626;23.308;2024-03-02T08:05:16;69960.53;;;-148.95;100.00
38558;BME280;24333;42.626;23.308;2024-03-02T08:07:43;69966.75;;;-148.95;100.00
38558;BME280;24333;42.626;23.308;2024-03-02T08:10:09;69972.97;;;-148.95;100.00
38558;BME280;24333;42.626;23.308;2024-03-02T08:12:35;69977.13;;;-148.95;100.00
38558;BME280;24333;42.626;23.308;2024-03-02T08:15:00;69977.13;;;-148.95;100.00
38558;BME280;24333;42.626;23.308;2024-03-02T08:17:26;69997.88;;;-148.95;100.00
38558;BME280;24333;42.626;23.308;2024-03-02T08:19:52;70008.22;;;-148.95;100.00
38558;BME280;24333;42.626;23.308;2024-03-02T08:22:18;70014.47;;;-148.95;100.00
38558;BME280;24333;42.626;23.308;2024-03-02T08:24:43;70002.00;;;-148.95;100.00
38558;BME280;24333;42.626;23.308;2024-03-02T08:27:09;69997.88;;;-148.95;100.00
38558;BME280;24333;42.626;23.308;2024-03-02T08:29:35;69989.56;;;-148.95;100.00
38558;BME280;24333;42.626;23.308;2024-03-02T08:32:00;69979.19;;;-148.95;100.00
38558;BME280;24333;42.626;23.308;2024-03-02T08:34:26;69979.19;;;-148.95;100.00
38558;BME280;24333;42.626;23.308;2024-03-02T08:36:51;69960.53;;;-148.95;100.00
38558;BME280;24333;42.626;23.308;2024-03-02T08:39:17;69948.06;;;-148.95;100.00
38558;BME280;24333;42.626;23.308;2024-03-02T08:41:45;69954.31;;;-148.95;100.00
38558;BME280;24333;42.626;23.308;2024-03-02T08:44:12;69954.31;;;-148.95;100.00
38558;BME280;24333;42.626;23.308;2024-03-02T08:46:38;69941.84;;;-148.95;100.00
38558;BME280;24333;42.626;23.308;2024-03-02T08:49:04;69925.25;;;-148.95;100.00
38558;BME280;24333;42.626;23.308;2024-03-02T08:51:30;69927.31;;;-148.95;100.00
38558;BME280;24333;42.626;23.308;2024-03-02T08:53:56;69919.03;;;-148.95;100.00
38558;BME280;24333;42.626;23.308;2024-03-02T08:56:22;69910.72;;;-148.95;100.00
38558;BME280;24333;42.626;23.308;2024-03-02T08:58:49;69912.81;;;-148.95;100.00
38558;BME280;24333;42.626;23.308;2024-03-02T09:01:14;69896.22;;;-148.95;100.00
38558;BME280;24333;42.626;23.308;2024-03-02T09:03:41;69890.00;;;-148.95;100.00
38558;BME280;24333;42.626;23.308;2024-03-02T09:06:09;69900.38;;;-148.95;100.00
38558;BME280;24333;42.626;23.308;2024-03-02T09:08:35;69887.91;;;-148.95;100.00
38558;BME280;24333;42.626;23.308;2024-03-02T09:11:02;69898.28;;;-148.95;100.00
38558;BME280;24333;42.626;23.308;2024-03-02T09:13:28;69939.78;;;-148.95;100.00
38558;BME280;24333;42.626;23.308;2024-03-02T09:15:54;69937.69;;;-148.95;100.00
38558;BME280;24333;42.626;23.308;2024-03-02T09:18:19;69946.00;;;-148.95;100.00
38558;BME280;24333;42.626;23.308;2024-03-02T09:21:00;69943.94;;;-148.95;100.00
38558;BME280;24333;42.626;23.308;2024-03-02T09:23:25;69939.78;;;-148.95;100.00
38558;BME280;24333;42.626;23.308;2024-03-02T09:25:51;69952.22;;;-148.95;100.00
38558;BME280;24333;42.626;23.308;2024-03-02T09:28:18;69937.69;;;-148.95;100.00
38558;BME280;24333;42.626;23.308;2024-03-02T09:31:07;69927.31;;;-148.95;100.00
38558;BME280;24333;42.626;23.308;2024-03-02T09:37:00;69964.66;;;-148.95;100.00
38558;BME280;24333;42.626;23.308;2024-03-02T09:39:26;69941.84;;;-148.95;100.00
38558;BME280;24333;42.626;23.308;2024-03-02T09:41:51;69939.78;;;-148.95;100.00
38558;BME280;24333;42.626;23.308;2024-03-02T09:44:17;69946.00;;;-148.95;100.00
38558;BME280;24333;42.626;23.308;2024-03-02T09:46:43;69941.84;;;-148.95;100.00
38558;BME280;24333;42.626;23.308;2024-03-02T09:49:10;69950.16;;;-148.95;100.00
38558;BME280;24333;42.626;23.308;2024-03-02T09:51:49;70002.00;;;-148.95;100.00
38558;BME280;24333;42.626;23.308;2024-03-02T09:54:15;70004.09;;;-148.95;100.00
38558;BME280;24333;42.626;23.308;2024-03-02T09:56:41;70008.22;;;-148.95;100.00
38558;BME280;24333;42.626;23.308;2024-03-02T09:59:08;70008.22;;;-148.95;100.00
38558;BME280;24333;42.626;23.308;2024-03-02T10:01:59;70028.97;;;-148.95;100.00
38558;BME280;24333;42.626;23.308;2024-03-02T10:04:37;70020.69;;;-148.95;100.00
38558;BME280;24333;42.626;23.308;2024-03-02T10:07:27;70020.69;;;-148.95;100.00
38558;BME280;24333;42.626;23.308;2024-03-02T10:09:52;70020.69;;;-148.95;100.00
38558;BME280;24333;42.626;23.308;2024-03-02T10:12:18;70012.38;;;-148.95;100.00
38558;BME280;24333;42.626;23.308;2024-03-02T10:14:44;70010.31;;;-148.95;100.00
38558;BME280;24333;42.626;23.308;2024-03-02T10:17:11;70014.47;;;-148.95;100.00
38558;BME280;24333;42.626;23.308;2024-03-02T10:19:38;70002.00;;;-148.95;100.00
38558;BME280;24333;42.626;23.308;2024-03-02T10:22:08;69993.72;;;-148.95;100.00
38558;BME280;24333;42.626;23.308;2024-03-02T10:24:42;70022.75;;;-148.95;100.00
38558;BME280;24333;42.626;23.308;2024-03-02T10:27:14;70031.06;;;-148.95;100.00
38558;BME280;24333;42.626;23.308;2024-03-02T10:29:40;70035.19;;;-148.95;100.00
38558;BME280;24333;42.626;23.308;2024-03-02T10:32:09;70012.38;;;-148.95;100.00
38558;BME280;24333;42.626;23.308;2024-03-02T10:34:37;70018.59;;;-148.95;100.00
38558;BME280;24333;42.626;23.308;2024-03-02T10:37:03;70026.91;;;-148.95;100.00
38558;BME280;24333;42.626;23.308;2024-03-02T10:39:28;70043.50;;;-148.95;100.00
38558;BME280;24333;42.626;23.308;2024-03-02T10:41:55;70033.13;;;-148.95;100.00
38558;BME280;24333;42.626;23.308;2024-03-02T10:44:22;70055.94;;;-148.95;100.00
38558;BME280;24333;42.626;23.308;2024-03-02T10:46:49;70049.72;;;-148.95;100.00
38558;BME280;24333;42.626;23.308;2024-03-02T10:49:16;70055.94;;;-148.95;100.00
38558;BME280;24333;42.626;23.308;2024-03-02T10:51:42;70051.81;;;-148.95;100.00
38558;BME280;24333;42.626;23.308;2024-03-02T10:54:07;70047.66;;;-148.95;100.00
38558;BME280;24333;42.626;23.308;2024-03-02T10:56:34;70039.34;;;-148.95;100.00
38558;BME280;24333;42.626;23.308;2024-03-02T11:01:39;70008.22;;;-148.95;100.00
38558;BME280;24333;42.626;23.308;2024-03-02T11:04:08;70002.00;;;-148.95;100.00
38558;BME280;24333;42.626;23.308;2024-03-02T11:06:35;69993.72;;;-148.95;100.00
38558;BME280;24333;42.626;23.308;2024-03-02T11:09:06;69977.13;;;-148.95;100.00
38558;BME280;24333;42.626;23.308;2024-03-02T11:11:37;69985.41;;;-148.95;100.00
38558;BME280;24333;42.626;23.308;2024-03-02T11:14:04;69993.72;;;-148.95;100.00
38558;BME280;24333;42.626;23.308;2024-03-02T11:16:34;69989.56;;;-148.95;100.00
38558;BME280;24333;42.626;23.308;2024-03-02T11:19:06;69987.50;;;-148.95;100.00
38558;BME280;24333;42.626;23.308;2024-03-02T11:21:36;70002.00;;;-148.95;100.00
38558;BME280;24333;42.626;23.308;2024-03-02T11:26:46;70006.16;;;-148.95;100.00
38558;BME280;24333;42.626;23.308;2024-03-02T11:32:13;70004.09;;;-148.95;100.00
38558;BME280;24333;42.626;23.308;2024-03-02T11:34:41;70006.16;;;-148.95;100.00
38558;BME280;24333;42.626;23.308;2024-03-02T11:37:10;70010.31;;;-148.95;100.00
38558;BME280;24333;42.626;23.308;2024-03-02T11:39:37;70014.47;;;-148.95;100.00
38558;BME280;24333;42.626;23.308;2024-03-02T11:42:05;70022.75;;;-148.95;100.00
38558;BME280;24333;42.626;23.308;2024-03-02T11:44:32;70031.06;;;-148.95;100.00
38558;BME280;24333;42.626;23.308;2024-03-02T11:47:02;70033.13;;;-148.95;100.00
38558;BME280;24333;42.626;23.308;2024-03-02T19:48:17;70259.25;;;-148.95;100.00
38558;BME280;24333;42.626;23.308;2024-03-02T21:43:08;70188.72;;;-148.95;100.00
38558;BME280;24333;42.626;23.308;2024-03-02T22:11:25;70234.38;;;-148.95;100.00
38558;BME280;24333;42.626;23.308;2024-03-02T22:13:51;70253.03;;;-148.95;100.00
38558;BME280;24333;42.626;23.308;2024-03-02T22:16:16;70240.59;;;-148.95;100.00
38558;BME280;24333;42.626;23.308;2024-03-02T22:18:42;70250.97;;;-148.95;100.00
38558;BME280;24333;42.626;23.308;2024-03-02T22:21:07;70244.75;;;-148.95;100.00
38558;BME280;24333;42.626;23.308;2024-03-02T22:23:37;70255.13;;;-148.95;100.00
38558;BME280;24333;42.626;23.308;2024-03-02T22:26:33;70250.97;;;-148.95;100.00
38558;BME280;24333;42.626;23.308;2024-03-02T22:29:20;70253.03;;;-148.95;100.00
38558;BME280;24333;42.626;23.308;2024-03-02T22:31:46;70253.03;;;-148.95;100.00
38558;BME280;24333;42.626;23.308;2024-03-02T22:34:12;70259.25;;;-148.95;100.00
38558;BME280;24333;42.626;23.308;2024-03-02T22:36:37;70257.19;;;-148.95;100.00
38558;BME280;24333;42.626;23.308;2024-03-02T22:39:03;70261.34;;;-148.95;100.00
38558;BME280;24333;42.626;23.308;2024-03-02T22:41:30;70265.47;;;-148.95;100.00
38558;BME280;24333;42.626;23.308;2024-03-02T22:44:23;70271.72;;;-148.95;100.00
38558;BME280;24333;42.626;23.308;2024-03-02T22:46:52;70273.78;;;-148.95;100.00
38558;BME280;24333;42.626;23.308;2024-03-02T22:49:20;70280.00;;;-148.95;100.00
38558;BME280;24333;42.626;23.308;2024-03-02T22:51:45;70290.38;;;-148.95;100.00
38558;BME280;24333;42.626;23.308;2024-03-02T22:54:36;70294.53;;;-148.95;100.00
38558;BME280;24333;42.626;23.308;2024-03-02T23:00:46;70311.13;;;-148.95;100.00
38558;BME280;24333;42.626;23.308;2024-03-02T23:03:15;70319.44;;;-148.95;100.00
38558;BME280;24333;42.626;23.308;2024-03-02T23:05:41;70323.56;;;-148.95;100.00
38558;BME280;24333;42.626;23.308;2024-03-02T23:08:07;70327.72;;;-148.95;100.00
38558;BME280;24333;42.626;23.308;2024-03-02T23:10:33;70331.88;;;-148.95;100.00
38558;BME280;24333;42.626;23.308;2024-03-02T23:12:58;70340.19;;;-148.95;100.00
38558;BME280;24333;42.626;23.308;2024-03-02T23:43:50;70398.28;;;-148.95;100.00
38558;BME280;24333;42.626;23.308;2024-03-02T23:46:16;70404.50;;;-148.95;100.00
38558;BME280;24333;42.626;23.308;2024-03-02T23:48:41;70402.41;;;-148.95;100.00
38558;BME280;24333;42.626;23.308;2024-03-02T23:51:07;70402.41;;;-148.95;100.00
38558;BME280;24333;42.626;23.308;2024-03-02T23:53:32;70400.34;;;-148.95;100.00
38558;BME280;24333;42.626;23.308;2024-03-02T23:56:07;70400.34;;;-148.95;100.00
38558;BME280;24333;42.626;23.308;2024-03-02T23:58:33;70396.19;;;-148.95;100.00
